createdAt,value
2023-09-09T00:00:52.797Z,11.03
2023-09-09T00:03:20.557Z,11.05
2023-09-09T00:05:47.766Z,11.07
2023-09-09T00:08:14.950Z,10.98
2023-09-09T00:10:42.066Z,10.98
2023-09-09T00:13:10.647Z,10.93
2023-09-09T00:15:37.899Z,10.92
2023-09-09T00:18:05.548Z,10.97
2023-09-09T00:20:35.081Z,10.85
2023-09-09T00:23:09.323Z,10.77
2023-09-09T00:25:39.754Z,10.78
2023-09-09T00:28:07.357Z,10.69
2023-09-09T00:30:35.136Z,10.73
2023-09-09T00:33:02.304Z,10.76
2023-09-09T00:35:29.388Z,10.75
2023-09-09T00:37:56.607Z,10.77
2023-09-09T00:40:23.830Z,10.80
2023-09-09T00:42:50.859Z,10.74
2023-09-09T00:45:18.162Z,10.74
2023-09-09T00:47:46.048Z,10.76
2023-09-09T00:50:15.076Z,10.76
2023-09-09T00:52:43.333Z,10.67
2023-09-09T00:55:12.408Z,10.67
2023-09-09T00:57:39.668Z,10.60
2023-09-09T01:00:13.103Z,10.54
2023-09-09T01:02:41.152Z,10.56
2023-09-09T01:05:09.341Z,10.62
2023-09-09T01:07:46.638Z,10.61
2023-09-09T01:10:14.504Z,10.55
2023-09-09T01:12:43.483Z,10.54
2023-09-09T01:15:11.718Z,10.53
2023-09-09T01:17:39.108Z,10.43
2023-09-09T01:20:17.404Z,10.40
2023-09-09T01:22:49.979Z,10.46
2023-09-09T01:25:17.965Z,10.55
2023-09-09T01:27:46.450Z,10.57
2023-09-09T01:30:13.633Z,10.61
2023-09-09T01:32:40.871Z,10.60
2023-09-09T01:35:09.277Z,10.64
2023-09-09T01:37:36.472Z,10.71
2023-09-09T01:40:10.154Z,10.75
2023-09-09T01:42:38.700Z,10.73
2023-09-09T01:45:08.354Z,10.61
2023-09-09T01:47:35.408Z,10.58
2023-09-09T01:50:03.848Z,10.48
2023-09-09T01:52:33.562Z,10.52
2023-09-09T01:55:00.838Z,10.57
2023-09-09T01:57:28.330Z,10.58
2023-09-09T01:59:55.692Z,10.63
2023-09-09T02:02:23.333Z,10.55
2023-09-09T02:04:50.410Z,10.53
2023-09-09T02:07:17.493Z,10.54
2023-09-09T02:09:45.952Z,10.55
2023-09-09T02:12:13.015Z,10.57
2023-09-09T02:14:40.276Z,10.62
2023-09-09T02:17:07.467Z,10.65
2023-09-09T02:19:34.726Z,10.62
2023-09-09T02:22:01.761Z,10.61
2023-09-09T02:24:28.857Z,10.60
2023-09-09T02:26:56.018Z,10.54
2023-09-09T02:29:23.241Z,10.60
2023-09-09T02:31:50.356Z,10.62
2023-09-09T02:34:17.602Z,10.62
2023-09-09T02:36:45.557Z,10.68
2023-09-09T02:39:12.608Z,10.66
2023-09-09T02:41:39.656Z,10.61
2023-09-09T02:44:07.236Z,10.61
2023-09-09T02:46:34.533Z,10.65
2023-09-09T02:49:01.673Z,10.70
2023-09-09T02:51:28.785Z,10.70
2023-09-09T02:53:55.795Z,10.69
2023-09-09T02:56:22.986Z,10.72
2023-09-09T02:58:50.013Z,10.73
2023-09-09T03:01:17.398Z,10.71
2023-09-09T03:03:44.590Z,10.73
2023-09-09T03:06:11.926Z,10.71
2023-09-09T03:08:39.165Z,10.70
2023-09-09T03:11:06.316Z,10.73
2023-09-09T03:13:34.771Z,10.67
2023-09-09T03:16:01.909Z,10.64
2023-09-09T03:18:28.924Z,10.66
2023-09-09T03:20:56.097Z,10.67
2023-09-09T03:23:23.531Z,10.70
2023-09-09T03:25:50.752Z,10.72
2023-09-09T03:28:17.935Z,10.70
2023-09-09T03:30:58.326Z,10.71
2023-09-09T03:33:29.179Z,10.82
2023-09-09T03:35:56.338Z,10.88
2023-09-09T03:38:23.716Z,10.87
2023-09-09T03:40:50.828Z,10.95
2023-09-09T03:43:17.828Z,11.04
2023-09-09T03:45:45.169Z,11.11
2023-09-09T03:48:14.501Z,11.18
2023-09-09T03:50:41.739Z,11.18
2023-09-09T03:53:08.945Z,11.21
2023-09-09T03:55:36.273Z,11.20
2023-09-09T03:58:03.510Z,11.05
2023-09-09T04:00:31.533Z,11.04
2023-09-09T04:02:58.747Z,11.16
2023-09-09T04:05:26.272Z,11.24
2023-09-09T04:07:53.344Z,11.33
2023-09-09T04:10:20.892Z,11.38
2023-09-09T04:12:49.427Z,11.33
2023-09-09T04:15:16.515Z,11.28
2023-09-09T04:17:43.821Z,11.28
2023-09-09T04:20:11.153Z,11.39
2023-09-09T04:22:39.080Z,11.45
2023-09-09T04:25:06.250Z,11.45
2023-09-09T04:27:33.428Z,11.42
2023-09-09T04:30:00.779Z,11.57
2023-09-09T04:32:32.672Z,11.72
2023-09-09T04:34:59.822Z,11.86
2023-09-09T04:37:29.073Z,11.96
2023-09-09T04:39:56.465Z,12.06
2023-09-09T04:42:24.915Z,12.08
2023-09-09T04:44:51.960Z,12.09
2023-09-09T04:47:19.406Z,12.08
2023-09-09T04:49:47.477Z,12.04
2023-09-09T04:52:14.598Z,12.16
2023-09-09T04:54:44.080Z,12.27
2023-09-09T04:57:11.848Z,12.17
2023-09-09T04:59:39.804Z,12.24
2023-09-09T05:02:07.053Z,12.41
2023-09-09T05:04:34.269Z,12.43
2023-09-09T05:07:02.042Z,12.45
2023-09-09T05:09:29.347Z,12.53
2023-09-09T05:11:56.544Z,12.68
2023-09-09T05:14:23.913Z,12.73
2023-09-09T05:16:51.205Z,12.83
2023-09-09T05:19:18.311Z,13.04
2023-09-09T05:21:45.404Z,13.18
2023-09-09T05:24:12.553Z,13.23
2023-09-09T05:26:39.642Z,13.36
2023-09-09T05:29:06.976Z,13.50
2023-09-09T05:31:36.378Z,13.49
2023-09-09T05:34:04.038Z,13.49
2023-09-09T05:36:31.695Z,13.38
2023-09-09T05:39:01.029Z,13.21
2023-09-09T05:41:30.826Z,13.13
2023-09-09T05:43:58.674Z,13.30
2023-09-09T05:46:26.041Z,13.48
2023-09-09T05:48:53.393Z,13.79
2023-09-09T05:51:20.523Z,14.06
2023-09-09T05:53:48.908Z,14.35
2023-09-09T05:56:15.980Z,14.52
2023-09-09T05:58:43.378Z,14.69
2023-09-09T06:01:10.536Z,14.72
2023-09-09T06:03:37.910Z,14.84
2023-09-09T06:06:05.405Z,15.01
2023-09-09T06:08:32.738Z,15.25
2023-09-09T06:10:59.969Z,15.40
2023-09-09T06:13:27.255Z,15.51
2023-09-09T06:15:54.368Z,15.48
2023-09-09T06:18:21.396Z,15.54
2023-09-09T06:20:49.418Z,15.69
2023-09-09T06:23:16.822Z,15.79
2023-09-09T06:25:44.473Z,15.81
2023-09-09T06:28:12.525Z,15.83
2023-09-09T06:30:44.297Z,15.92
2023-09-09T06:33:11.635Z,15.91
2023-09-09T06:35:47.535Z,15.86
2023-09-09T06:38:15.157Z,16.03
2023-09-09T06:40:45.167Z,16.23
2023-09-09T06:43:12.353Z,16.45
2023-09-09T06:45:39.450Z,16.65
2023-09-09T06:48:06.718Z,17.01
2023-09-09T06:50:33.821Z,17.26
2023-09-09T06:53:01.109Z,17.54
2023-09-09T06:55:29.098Z,17.51
2023-09-09T06:57:56.258Z,17.39
2023-09-09T07:00:23.348Z,17.16
2023-09-09T07:02:50.467Z,17.00
2023-09-09T07:05:18.335Z,17.04
2023-09-09T07:07:47.836Z,17.00
2023-09-09T07:10:15.010Z,16.93
2023-09-09T07:12:43.574Z,16.79
2023-09-09T07:15:10.944Z,16.64
2023-09-09T07:17:38.031Z,16.48
2023-09-09T07:20:05.737Z,16.46
2023-09-09T07:22:32.968Z,16.61
2023-09-09T07:25:00.125Z,16.72
2023-09-09T07:27:27.315Z,16.80
2023-09-09T07:29:54.982Z,16.76
2023-09-09T07:32:22.048Z,16.76
2023-09-09T07:34:50.277Z,16.81
2023-09-09T07:37:17.931Z,16.75
2023-09-09T07:39:50.233Z,16.83
2023-09-09T07:42:17.163Z,17.03
2023-09-09T07:44:44.801Z,17.34
2023-09-09T07:47:12.507Z,17.63
2023-09-09T07:49:39.718Z,17.52
2023-09-09T07:52:07.019Z,17.49
2023-09-09T07:54:34.040Z,17.51
2023-09-09T07:57:01.266Z,17.45
2023-09-09T07:59:29.649Z,17.31
2023-09-09T08:01:56.779Z,17.18
2023-09-09T08:04:24.322Z,17.09
2023-09-09T08:06:54.108Z,17.03
2023-09-09T08:09:24.122Z,17.07
2023-09-09T08:11:51.327Z,17.01
2023-09-09T08:14:18.934Z,16.94
2023-09-09T08:16:46.154Z,16.79
2023-09-09T08:19:13.543Z,16.75
2023-09-09T08:21:40.565Z,16.77
2023-09-09T08:24:07.745Z,16.75
2023-09-09T08:26:34.938Z,16.57
2023-09-09T08:29:01.975Z,16.39
2023-09-09T08:31:29.154Z,16.26
2023-09-09T08:33:56.189Z,16.09
2023-09-09T08:36:23.226Z,15.93
2023-09-09T08:38:50.729Z,15.86
2023-09-09T08:41:29.478Z,15.66
2023-09-09T08:44:23.034Z,15.59
2023-09-09T08:46:50.191Z,15.57
2023-09-09T08:49:17.238Z,15.49
2023-09-09T08:51:51.596Z,15.40
2023-09-09T08:54:18.725Z,15.30
2023-09-09T08:56:46.048Z,15.17
2023-09-09T08:59:14.257Z,15.07
2023-09-09T09:01:41.746Z,14.94
2023-09-09T09:04:11.389Z,14.91
2023-09-09T09:06:38.804Z,14.89
2023-09-09T09:09:06.402Z,14.84
2023-09-09T09:11:33.615Z,14.66
2023-09-09T09:14:08.642Z,14.60
2023-09-09T09:16:41.978Z,14.50
2023-09-09T09:19:33.615Z,14.33
2023-09-09T09:22:00.862Z,14.23
2023-09-09T09:24:28.999Z,14.26
2023-09-09T09:26:56.563Z,14.31
2023-09-09T09:29:23.923Z,14.33
2023-09-09T09:31:52.440Z,14.37
2023-09-09T09:34:23.424Z,14.21
2023-09-09T09:36:50.480Z,14.14
2023-09-09T09:39:17.564Z,14.12
2023-09-09T09:41:44.832Z,14.14
2023-09-09T09:44:21.411Z,14.11
2023-09-09T09:47:07.817Z,14.14
2023-09-09T09:49:35.502Z,14.07
2023-09-09T09:52:02.739Z,14.04
2023-09-09T09:54:30.514Z,14.04
2023-09-09T09:57:04.751Z,14.07
2023-09-09T09:59:33.691Z,14.03
2023-09-09T10:02:10.110Z,14.11
2023-09-09T10:04:42.829Z,14.08
2023-09-09T10:07:12.568Z,14.02
2023-09-09T10:09:51.333Z,13.99
2023-09-09T10:12:46.434Z,13.98
2023-09-09T10:15:14.924Z,14.06
2023-09-09T10:17:42.099Z,14.07
2023-09-09T10:20:09.380Z,14.15
2023-09-09T10:22:36.486Z,14.16
2023-09-09T10:25:05.213Z,14.17
2023-09-09T10:27:32.267Z,14.18
2023-09-09T10:29:59.433Z,14.22
2023-09-09T10:32:27.572Z,14.27
2023-09-09T10:34:54.706Z,14.26
2023-09-09T10:37:21.914Z,14.21
2023-09-09T10:39:49.318Z,14.23
2023-09-09T10:42:19.417Z,14.32
2023-09-09T10:44:49.969Z,14.43
2023-09-09T10:47:17.884Z,14.53
2023-09-09T10:49:44.965Z,14.52
2023-09-09T10:52:35.150Z,14.59
2023-09-09T10:55:14.692Z,14.58
2023-09-09T10:57:41.816Z,14.63
2023-09-09T11:00:11.952Z,14.69
2023-09-09T11:02:48.145Z,14.57
2023-09-09T11:05:16.515Z,14.54
2023-09-09T11:07:44.593Z,14.45
2023-09-09T11:10:16.432Z,14.41
2023-09-09T11:12:57.972Z,14.44
2023-09-09T11:15:28.088Z,14.45
2023-09-09T11:17:55.315Z,14.54
2023-09-09T11:20:22.530Z,14.60
2023-09-09T11:22:49.682Z,14.60
2023-09-09T11:25:17.996Z,14.49
2023-09-09T11:27:46.460Z,14.55
2023-09-09T11:30:13.724Z,14.53
2023-09-09T11:32:41.181Z,14.50
2023-09-09T11:35:10.415Z,14.49
2023-09-09T11:37:37.600Z,14.46
2023-09-09T11:40:05.181Z,14.49
2023-09-09T11:42:32.282Z,14.32
2023-09-09T11:44:59.382Z,14.28
2023-09-09T11:47:26.459Z,14.20
2023-09-09T11:49:53.423Z,14.20
2023-09-09T11:52:24.144Z,14.16
2023-09-09T11:54:51.341Z,14.16
2023-09-09T11:57:18.518Z,14.24
2023-09-09T11:59:50.233Z,14.34
2023-09-09T12:02:27.333Z,14.41
2023-09-09T12:04:58.920Z,14.43
2023-09-09T12:07:33.921Z,14.44
2023-09-09T12:10:01.531Z,14.46
2023-09-09T12:12:32.252Z,14.42
2023-09-09T12:14:59.819Z,14.45
2023-09-09T12:17:27.483Z,14.47
2023-09-09T12:19:58.353Z,14.45
2023-09-09T12:22:29.677Z,14.45
2023-09-09T12:24:56.750Z,14.48
2023-09-09T12:27:23.774Z,14.47
2023-09-09T12:29:50.804Z,14.52
2023-09-09T12:32:19.224Z,14.53
2023-09-09T12:34:46.331Z,14.55
2023-09-09T12:37:13.384Z,14.51
2023-09-09T12:39:40.425Z,14.49
2023-09-09T12:42:08.677Z,14.45
2023-09-09T12:44:52.112Z,14.42
2023-09-09T12:47:22.710Z,14.39
2023-09-09T12:49:51.030Z,14.40
2023-09-09T12:52:18.497Z,14.47
2023-09-09T12:54:45.577Z,14.48
2023-09-09T12:57:12.566Z,14.46
2023-09-09T12:59:39.766Z,14.38
2023-09-09T13:02:07.156Z,14.34
2023-09-09T13:04:34.422Z,14.32
2023-09-09T13:07:01.592Z,14.36
2023-09-09T13:09:28.640Z,14.39
2023-09-09T13:11:55.808Z,14.30
2023-09-09T13:14:26.013Z,14.25
2023-09-09T13:16:55.660Z,14.16
2023-09-09T13:19:25.548Z,14.23
2023-09-09T13:21:54.001Z,14.28
2023-09-09T13:24:21.029Z,14.26
2023-09-09T13:26:48.083Z,14.28
2023-09-09T13:29:16.804Z,14.28
2023-09-09T13:31:45.773Z,14.33
2023-09-09T13:34:13.246Z,14.28
2023-09-09T13:36:40.403Z,14.26
2023-09-09T13:39:07.430Z,14.33
2023-09-09T13:41:34.835Z,14.35
2023-09-09T13:44:02.263Z,14.34
2023-09-09T13:46:29.545Z,14.36
2023-09-09T13:48:56.615Z,14.35
2023-09-09T13:51:24.003Z,14.30
2023-09-09T13:53:51.174Z,14.33
2023-09-09T13:56:18.259Z,14.37
2023-09-09T13:58:45.417Z,14.41
2023-09-09T14:01:12.598Z,14.43
2023-09-09T14:03:39.965Z,14.43
2023-09-09T14:06:09.746Z,14.37
2023-09-09T14:08:37.166Z,14.40
2023-09-09T14:11:04.518Z,14.43
2023-09-09T14:13:31.563Z,14.44
2023-09-09T14:15:58.718Z,14.40
2023-09-09T14:18:25.913Z,14.47
2023-09-09T14:20:54.237Z,14.47
2023-09-09T14:23:21.677Z,14.48
2023-09-09T14:25:48.821Z,14.48
2023-09-09T14:28:15.879Z,14.49
2023-09-09T14:30:49.081Z,14.53
2023-09-09T14:33:16.547Z,14.57
2023-09-09T14:35:43.799Z,14.53
2023-09-09T14:38:10.832Z,14.47
2023-09-09T14:40:38.028Z,14.44
2023-09-09T14:43:05.188Z,14.43
2023-09-09T14:45:33.780Z,14.42
2023-09-09T14:48:00.941Z,14.38
2023-09-09T14:50:28.225Z,14.35
2023-09-09T14:52:55.232Z,14.36
2023-09-09T14:55:22.882Z,14.39
2023-09-09T14:57:50.026Z,14.40
2023-09-09T15:00:17.380Z,14.39
2023-09-09T15:02:44.439Z,14.36
2023-09-09T15:05:11.851Z,14.37
2023-09-09T15:07:39.301Z,14.39
2023-09-09T15:10:07.026Z,14.40
2023-09-09T15:12:34.634Z,14.40
2023-09-09T15:15:01.944Z,14.39
2023-09-09T15:17:32.925Z,14.40
2023-09-09T15:20:00.332Z,14.38
2023-09-09T15:22:27.550Z,14.35
2023-09-09T15:24:55.163Z,14.30
2023-09-09T15:27:22.189Z,14.23
2023-09-09T15:29:49.237Z,14.26
2023-09-09T15:32:16.456Z,14.19
2023-09-09T15:34:43.771Z,14.14
2023-09-09T15:37:10.970Z,14.10
2023-09-09T15:39:38.009Z,14.10
2023-09-09T15:42:05.476Z,14.08
2023-09-09T15:44:32.522Z,14.05
2023-09-09T15:46:59.639Z,14.08
2023-09-09T15:49:26.993Z,14.06
2023-09-09T15:51:54.160Z,14.10
2023-09-09T15:54:21.926Z,14.15
2023-09-09T15:56:48.938Z,14.22
2023-09-09T15:59:16.106Z,14.23
2023-09-09T16:01:43.277Z,14.26
2023-09-09T16:04:10.953Z,14.32
2023-09-09T16:06:38.088Z,14.26
2023-09-09T16:09:05.226Z,14.16
2023-09-09T16:11:32.272Z,14.12
2023-09-09T16:13:59.379Z,14.12
2023-09-09T16:16:26.560Z,14.16
2023-09-09T16:18:53.714Z,14.19
2023-09-09T16:21:21.306Z,14.16
2023-09-09T16:23:48.347Z,14.17
2023-09-09T16:26:15.576Z,14.13
2023-09-09T16:28:42.672Z,14.09
2023-09-09T16:31:09.843Z,14.10
2023-09-09T16:33:37.102Z,14.13
2023-09-09T16:36:05.027Z,14.16
2023-09-09T16:38:32.817Z,14.15
2023-09-09T16:40:59.931Z,14.15
2023-09-09T16:43:27.603Z,14.09
2023-09-09T16:45:54.930Z,14.09
2023-09-09T16:48:25.076Z,14.09
2023-09-09T16:50:52.369Z,14.03
2023-09-09T16:53:21.810Z,14.04
2023-09-09T16:56:03.331Z,14.02
2023-09-09T16:58:31.093Z,14.05
2023-09-09T17:00:58.136Z,14.01
2023-09-09T17:03:25.317Z,13.95
2023-09-09T17:05:53.612Z,13.85
2023-09-09T17:08:20.792Z,13.84
2023-09-09T17:10:51.160Z,13.83
2023-09-09T17:13:18.414Z,13.75
2023-09-09T17:15:45.593Z,13.73
2023-09-09T17:18:12.842Z,13.73
2023-09-09T17:20:40.529Z,13.74
2023-09-09T17:23:07.630Z,13.77
2023-09-09T17:25:34.757Z,13.81
2023-09-09T17:28:01.838Z,13.83
2023-09-09T17:30:29.219Z,13.75
2023-09-09T17:32:57.297Z,13.69
2023-09-09T17:35:25.201Z,13.58
2023-09-09T17:37:52.364Z,13.60
2023-09-09T17:40:19.750Z,13.63
2023-09-09T17:42:47.392Z,13.67
2023-09-09T17:45:14.781Z,13.57
2023-09-09T17:47:44.999Z,13.59
2023-09-09T17:50:12.608Z,13.58
2023-09-09T17:52:42.648Z,13.59
2023-09-09T17:55:13.799Z,13.60
2023-09-09T17:57:40.976Z,13.65
2023-09-09T18:00:08.582Z,13.65
2023-09-09T18:02:35.642Z,13.64
2023-09-09T18:05:02.913Z,13.61
2023-09-09T18:07:30.767Z,13.63
2023-09-09T18:09:57.929Z,13.75
2023-09-09T18:12:25.179Z,13.82
2023-09-09T18:14:52.315Z,13.89
2023-09-09T18:17:19.435Z,13.89
2023-09-09T18:19:49.405Z,13.83
2023-09-09T18:22:16.572Z,13.76
2023-09-09T18:24:44.529Z,13.70
2023-09-09T18:27:11.562Z,13.69
2023-09-09T18:29:38.654Z,13.63
2023-09-09T18:32:06.272Z,13.58
2023-09-09T18:34:33.639Z,13.54
2023-09-09T18:37:04.051Z,13.49
2023-09-09T18:39:31.710Z,13.53
2023-09-09T18:41:58.784Z,13.59
2023-09-09T18:44:26.473Z,13.58
2023-09-09T18:46:55.655Z,13.60
2023-09-09T18:49:22.805Z,13.62
2023-09-09T18:51:50.685Z,13.61
2023-09-09T18:54:17.886Z,13.59
2023-09-09T18:56:46.014Z,13.63
2023-09-09T18:59:13.182Z,13.66
2023-09-09T19:01:40.298Z,13.66
2023-09-09T19:04:07.664Z,13.68
2023-09-09T19:06:34.960Z,13.75
2023-09-09T19:09:02.078Z,13.69
2023-09-09T19:11:29.192Z,13.74
2023-09-09T19:13:56.215Z,13.75
2023-09-09T19:16:23.642Z,13.76
2023-09-09T19:18:52.553Z,13.77
2023-09-09T19:21:19.539Z,13.84
2023-09-09T19:23:48.914Z,13.82
2023-09-09T19:26:16.040Z,13.82
2023-09-09T19:28:43.134Z,13.82
2023-09-09T19:31:10.374Z,13.78
2023-09-09T19:33:37.596Z,13.70
2023-09-09T19:36:05.897Z,13.67
2023-09-09T19:38:33.016Z,13.65
2023-09-09T19:41:00.272Z,13.62
2023-09-09T19:43:27.392Z,13.65
2023-09-09T19:45:55.742Z,13.63
2023-09-09T19:48:22.869Z,13.59
2023-09-09T19:50:49.960Z,13.58
2023-09-09T19:53:19.395Z,13.51
2023-09-09T19:55:47.935Z,13.57
2023-09-09T19:58:15.009Z,13.53
2023-09-09T20:00:41.988Z,13.49
2023-09-09T20:03:09.173Z,13.50
2023-09-09T20:05:36.364Z,13.54
2023-09-09T20:08:04.741Z,13.60
2023-09-09T20:10:31.807Z,13.58
2023-09-09T20:12:59.034Z,13.53
2023-09-09T20:15:26.147Z,13.51
2023-09-09T20:17:53.335Z,13.58
2023-09-09T20:20:20.485Z,13.59
2023-09-09T20:22:47.855Z,13.61
2023-09-09T20:25:16.033Z,13.56
2023-09-09T20:27:44.810Z,13.55
2023-09-09T20:30:12.695Z,13.56
2023-09-09T20:32:39.908Z,13.59
2023-09-09T20:35:25.167Z,13.63
2023-09-09T20:37:54.637Z,13.60
2023-09-09T20:40:25.169Z,13.56
2023-09-09T20:42:56.676Z,13.55
2023-09-09T20:45:24.695Z,13.54
2023-09-09T20:47:52.098Z,13.48
2023-09-09T20:50:20.383Z,13.50
2023-09-09T20:52:48.526Z,13.54
2023-09-09T20:55:15.859Z,13.63
2023-09-09T20:57:43.079Z,13.62
2023-09-09T21:00:14.596Z,13.62
2023-09-09T21:02:47.677Z,13.64
2023-09-09T21:05:15.993Z,13.67
2023-09-09T21:07:43.648Z,13.75
2023-09-09T21:10:11.735Z,13.77
2023-09-09T21:12:47.808Z,13.84
2023-09-09T21:15:16.460Z,13.88
2023-09-09T21:17:45.104Z,13.86
2023-09-09T21:20:12.902Z,13.81
2023-09-09T21:22:40.098Z,13.68
2023-09-09T21:25:10.307Z,13.54
2023-09-09T21:27:37.652Z,13.45
2023-09-09T21:30:05.531Z,13.42
2023-09-09T21:32:33.086Z,13.42
2023-09-09T21:35:00.305Z,13.40
2023-09-09T21:37:27.472Z,13.46
2023-09-09T21:39:54.778Z,13.45
2023-09-09T21:42:21.822Z,13.39
2023-09-09T21:44:49.277Z,13.35
2023-09-09T21:47:16.351Z,13.30
2023-09-09T21:49:43.452Z,13.17
2023-09-09T21:52:10.554Z,13.12
2023-09-09T21:54:37.594Z,13.04
2023-09-09T21:57:04.854Z,12.99
2023-09-09T21:59:31.899Z,12.92
2023-09-09T22:01:59.158Z,12.94
2023-09-09T22:04:26.242Z,12.92
2023-09-09T22:06:53.306Z,12.82
2023-09-09T22:09:22.620Z,12.79
2023-09-09T22:11:49.850Z,12.78
2023-09-09T22:14:19.598Z,12.73
2023-09-09T22:16:46.720Z,12.67
2023-09-09T22:19:13.973Z,12.60
2023-09-09T22:21:41.003Z,12.65
2023-09-09T22:24:08.332Z,12.60
2023-09-09T22:26:35.375Z,12.57
2023-09-09T22:29:02.487Z,12.57
2023-09-09T22:31:31.674Z,12.61
2023-09-09T22:33:59.063Z,12.54
2023-09-09T22:36:26.078Z,12.46
2023-09-09T22:38:55.061Z,12.42
2023-09-09T22:41:22.218Z,12.35
2023-09-09T22:43:49.286Z,12.28
2023-09-09T22:46:16.622Z,12.16
2023-09-09T22:48:43.728Z,12.04
2023-09-09T22:51:10.764Z,12.03
2023-09-09T22:53:37.736Z,12.04
2023-09-09T22:56:04.985Z,12.01
2023-09-09T22:58:34.957Z,11.90
2023-09-09T23:01:04.072Z,11.99
2023-09-09T23:03:31.755Z,12.13
2023-09-09T23:06:05.655Z,12.16
2023-09-09T23:08:33.584Z,12.06
2023-09-09T23:11:13.807Z,11.99
2023-09-09T23:13:41.411Z,12.03
2023-09-09T23:16:08.601Z,12.05
2023-09-09T23:18:37.802Z,12.07
2023-09-09T23:21:05.322Z,12.04
2023-09-09T23:23:32.318Z,11.94
2023-09-09T23:26:00.233Z,11.90
2023-09-09T23:28:27.268Z,11.92
2023-09-09T23:31:05.040Z,12.00
2023-09-09T23:33:32.820Z,12.05
2023-09-09T23:36:05.659Z,11.97
2023-09-09T23:38:32.998Z,11.94
2023-09-09T23:41:00.449Z,11.99
2023-09-09T23:43:27.607Z,11.94
2023-09-09T23:45:54.794Z,11.90
2023-09-09T23:48:21.919Z,11.86
2023-09-09T23:50:48.935Z,11.86
2023-09-09T23:53:16.184Z,11.83
2023-09-09T23:55:43.313Z,11.81
2023-09-09T23:58:10.310Z,11.74
